createdAt,value
2017-10-21T00:00:16.327Z,5.33
2017-10-21T00:02:43.821Z,5.30
2017-10-21T00:05:11.440Z,6.07
2017-10-21T00:07:39.099Z,5.30
2017-10-21T00:10:07.151Z,5.80
2017-10-21T00:12:34.663Z,5.17
2017-10-21T00:15:02.163Z,5.40
2017-10-21T00:17:30.423Z,5.80
2017-10-21T00:19:58.822Z,5.70
2017-10-21T00:22:26.333Z,6.03
2017-10-21T00:24:54.612Z,6.20
2017-10-21T00:27:22.123Z,5.57
2017-10-21T00:29:50.385Z,6.10
2017-10-21T00:32:19.036Z,6.03
2017-10-21T00:34:47.310Z,5.80
2017-10-21T00:37:14.883Z,5.67
2017-10-21T00:39:42.399Z,5.10
2017-10-21T00:42:09.994Z,5.27
2017-10-21T00:44:37.656Z,5.60
2017-10-21T00:47:05.571Z,5.30
2017-10-21T00:49:33.093Z,5.30
2017-10-21T00:52:01.548Z,6.47
2017-10-21T00:54:29.067Z,5.43
2017-10-21T00:56:56.964Z,6.40
2017-10-21T00:59:24.631Z,6.07
2017-10-21T01:01:52.126Z,5.67
2017-10-21T01:04:20.411Z,6.60
2017-10-21T01:06:48.303Z,6.30
2017-10-21T01:09:16.952Z,6.43
2017-10-21T01:11:44.577Z,6.03
2017-10-21T01:14:12.099Z,6.10
2017-10-21T01:16:39.997Z,5.70
2017-10-21T01:19:07.520Z,5.23
2017-10-21T01:21:35.015Z,5.83
2017-10-21T01:24:02.535Z,6.33
2017-10-21T01:26:31.327Z,5.50
2017-10-21T01:28:59.006Z,6.07
2017-10-21T01:31:27.274Z,5.57
2017-10-21T01:33:54.941Z,5.37
2017-10-21T01:36:22.441Z,5.70
2017-10-21T01:38:51.463Z,6.10
2017-10-21T01:41:19.123Z,4.87
2017-10-21T01:43:46.783Z,5.07
2017-10-21T01:46:15.049Z,5.93
2017-10-21T01:48:42.727Z,5.20
2017-10-21T01:51:11.359Z,6.30
2017-10-21T01:53:40.251Z,5.50
2017-10-21T01:56:08.561Z,5.77
2017-10-21T01:58:36.930Z,5.67
2017-10-21T02:01:05.187Z,5.97
2017-10-21T02:03:33.071Z,5.93
2017-10-21T02:06:01.704Z,4.87
2017-10-21T02:08:29.710Z,5.53
2017-10-21T02:10:57.212Z,5.27
2017-10-21T02:13:24.704Z,5.73
2017-10-21T02:15:52.695Z,5.27
2017-10-21T02:18:20.199Z,5.63
2017-10-21T02:20:47.820Z,5.67
2017-10-21T02:23:15.483Z,5.30
2017-10-21T02:25:43.385Z,4.80
2017-10-21T02:28:11.007Z,5.63
2017-10-21T02:30:38.503Z,6.50
2017-10-21T02:33:05.999Z,5.23
2017-10-21T02:35:33.558Z,5.07
2017-10-21T02:38:02.414Z,5.47
2017-10-21T02:40:30.109Z,5.13
2017-10-21T02:42:58.387Z,5.27
2017-10-21T02:45:26.045Z,5.10
2017-10-21T02:47:53.691Z,4.90
2017-10-21T02:50:21.362Z,4.80
2017-10-21T02:52:48.863Z,4.80
2017-10-21T02:55:17.519Z,4.93
2017-10-21T02:57:45.416Z,5.23
2017-10-21T03:00:13.330Z,5.50
2017-10-21T03:02:40.824Z,5.40
2017-10-21T03:05:08.746Z,5.00
2017-10-21T03:07:37.378Z,5.20
2017-10-21T03:10:04.896Z,5.53
2017-10-21T03:12:33.240Z,5.30
2017-10-21T03:15:02.271Z,4.37
2017-10-21T03:17:29.905Z,5.70
2017-10-21T03:19:57.559Z,5.50
2017-10-21T03:22:25.090Z,5.63
2017-10-21T03:24:53.752Z,5.77
2017-10-21T03:27:21.257Z,5.47
2017-10-21T03:29:49.631Z,5.27
2017-10-21T03:32:17.136Z,5.47
2017-10-21T03:34:44.659Z,6.10
2017-10-21T03:37:12.156Z,5.30
2017-10-21T03:39:39.851Z,6.13
2017-10-21T03:42:07.739Z,4.83
2017-10-21T03:44:35.263Z,4.63
2017-10-21T03:47:02.755Z,4.80
2017-10-21T03:49:30.283Z,4.70
2017-10-21T03:51:57.951Z,5.50
2017-10-21T03:54:25.474Z,5.20
2017-10-21T03:56:53.736Z,5.20
2017-10-21T03:59:22.029Z,5.80
2017-10-21T04:01:50.415Z,5.13
2017-10-21T04:04:17.930Z,4.63
2017-10-21T04:06:45.424Z,5.00
2017-10-21T04:09:13.708Z,4.73
2017-10-21T04:11:41.203Z,4.63
2017-10-21T04:14:09.100Z,5.07
2017-10-21T04:16:36.598Z,5.40
2017-10-21T04:19:04.083Z,4.70
2017-10-21T04:21:31.571Z,4.10
2017-10-21T04:24:00.597Z,4.70
2017-10-21T04:26:28.097Z,4.97
2017-10-21T04:28:55.600Z,4.80
2017-10-21T04:31:23.103Z,5.20
2017-10-21T04:33:51.006Z,5.00
2017-10-21T04:36:18.644Z,5.70
2017-10-21T04:38:46.144Z,5.00
2017-10-21T04:41:15.007Z,5.50
2017-10-21T04:43:42.670Z,5.80
2017-10-21T04:46:10.180Z,5.83
2017-10-21T04:48:37.872Z,5.03
2017-10-21T04:51:06.798Z,5.00
2017-10-21T04:53:35.142Z,5.30
2017-10-21T04:56:02.663Z,5.13
2017-10-21T04:58:30.255Z,5.30
2017-10-21T05:00:58.939Z,6.10
2017-10-21T05:03:28.028Z,5.70
2017-10-21T05:05:55.682Z,6.33
2017-10-21T05:08:23.198Z,5.93
2017-10-21T05:10:51.719Z,6.20
2017-10-21T05:13:19.216Z,5.30
2017-10-21T05:15:46.734Z,5.50
2017-10-21T05:18:14.637Z,6.43
2017-10-21T05:20:42.188Z,5.60
2017-10-21T05:23:09.699Z,6.43
2017-10-21T05:25:37.384Z,5.83
2017-10-21T05:28:04.920Z,5.97
2017-10-21T05:30:34.935Z,5.27
2017-10-21T05:33:03.811Z,6.83
2017-10-21T05:35:31.319Z,5.70
2017-10-21T05:37:58.936Z,6.10
2017-10-21T05:40:26.851Z,6.43
2017-10-21T05:42:54.368Z,5.93
2017-10-21T05:45:21.895Z,5.83
2017-10-21T05:47:49.798Z,5.53
2017-10-21T05:50:17.314Z,6.50
2017-10-21T05:52:46.337Z,5.87
2017-10-21T05:55:13.860Z,5.77
2017-10-21T05:57:42.500Z,6.60
2017-10-21T06:00:10.680Z,7.00
2017-10-21T06:02:39.000Z,6.03
2017-10-21T06:05:06.663Z,6.83
2017-10-21T06:07:34.923Z,6.43
2017-10-21T06:10:02.919Z,6.93
2017-10-21T06:12:31.192Z,6.23
2017-10-21T06:14:58.764Z,5.80
2017-10-21T06:17:33.551Z,6.70
2017-10-21T06:20:01.077Z,6.60
2017-10-21T06:22:28.570Z,6.13
2017-10-21T06:24:56.847Z,6.30
2017-10-21T06:27:24.741Z,6.30
2017-10-21T06:29:52.669Z,5.90
2017-10-21T06:32:20.584Z,6.20
2017-10-21T06:34:49.619Z,6.67
2017-10-21T06:37:17.111Z,6.07
2017-10-21T06:39:45.958Z,6.50
2017-10-21T06:42:13.646Z,5.80
2017-10-21T06:44:41.543Z,7.40
2017-10-21T06:47:09.043Z,7.33
2017-10-21T06:49:36.544Z,6.53
2017-10-21T06:52:04.830Z,6.53
2017-10-21T06:54:32.331Z,7.20
2017-10-21T06:56:59.863Z,7.47
2017-10-21T06:59:27.355Z,6.10
2017-10-21T07:01:55.010Z,6.07
2017-10-21T07:04:23.275Z,6.97
2017-10-21T07:06:50.791Z,5.23
2017-10-21T07:09:18.307Z,6.50
2017-10-21T07:11:45.823Z,7.00
2017-10-21T07:14:14.087Z,5.50
2017-10-21T07:16:41.634Z,6.93
2017-10-21T07:19:10.263Z,6.10
2017-10-21T07:21:37.781Z,7.57
2017-10-21T07:24:05.307Z,7.27
2017-10-21T07:26:33.635Z,6.53
2017-10-21T07:29:01.291Z,6.63
2017-10-21T07:31:28.814Z,6.47
2017-10-21T07:33:56.307Z,6.50
2017-10-21T07:36:23.823Z,6.10
2017-10-21T07:38:51.317Z,6.50
2017-10-21T07:41:20.000Z,5.97
2017-10-21T07:43:48.311Z,7.20
2017-10-21T07:46:15.823Z,7.00
2017-10-21T07:48:43.331Z,6.70
2017-10-21T07:51:11.263Z,7.30
2017-10-21T07:53:38.922Z,6.70
2017-10-21T07:56:06.439Z,6.43
2017-10-21T07:58:34.423Z,6.80
2017-10-21T08:01:03.072Z,7.47
2017-10-21T08:03:30.564Z,6.90
2017-10-21T08:05:58.544Z,6.70
2017-10-21T08:08:26.039Z,6.57
2017-10-21T08:10:53.554Z,7.30
2017-10-21T08:13:21.560Z,7.13
2017-10-21T08:15:49.074Z,7.10
2017-10-21T08:18:16.923Z,8.23
2017-10-21T08:20:44.441Z,8.83
2017-10-21T08:23:11.939Z,7.60
2017-10-21T08:25:39.465Z,7.60
2017-10-21T08:28:07.735Z,7.20
2017-10-21T08:30:36.023Z,7.70
2017-10-21T08:33:04.294Z,7.23
2017-10-21T08:35:31.823Z,6.47
2017-10-21T08:37:59.320Z,6.93
2017-10-21T08:40:26.911Z,7.60
2017-10-21T08:42:54.411Z,6.43
2017-10-21T08:45:22.311Z,6.90
2017-10-21T08:47:49.818Z,5.70
2017-10-21T08:50:17.408Z,6.50
2017-10-21T08:52:44.911Z,6.33
2017-10-21T08:55:13.770Z,6.80
2017-10-21T08:57:42.651Z,6.47
2017-10-21T09:00:10.912Z,6.10
2017-10-21T09:02:38.427Z,6.17
2017-10-21T09:05:06.375Z,6.13
2017-10-21T09:07:33.892Z,6.47
2017-10-21T09:10:02.552Z,6.90
2017-10-21T09:12:31.596Z,7.27
2017-10-21T09:14:59.138Z,7.40
2017-10-21T09:17:26.659Z,7.70
2017-10-21T09:19:54.922Z,7.47
2017-10-21T09:22:23.211Z,6.90
2017-10-21T09:24:51.107Z,6.10
2017-10-21T09:27:18.631Z,6.53
2017-10-21T09:29:46.199Z,6.33
2017-10-21T09:32:14.120Z,7.60
2017-10-21T09:34:42.006Z,7.50
2017-10-21T09:37:10.291Z,10.67
2017-10-21T09:39:37.795Z,8.40
2017-10-21T09:42:05.321Z,7.87
2017-10-21T09:44:33.579Z,8.13
2017-10-21T09:47:01.094Z,7.63
2017-10-21T09:49:28.593Z,8.10
2017-10-21T09:51:56.888Z,9.40
2017-10-21T09:54:25.527Z,7.83
2017-10-21T09:56:53.806Z,9.77
2017-10-21T09:59:22.068Z,7.40
2017-10-21T10:01:50.339Z,8.20
2017-10-21T10:04:18.987Z,7.53
2017-10-21T10:06:46.518Z,7.93
2017-10-21T10:09:14.016Z,7.23
2017-10-21T10:11:43.118Z,7.80
2017-10-21T10:14:10.619Z,8.10
2017-10-21T10:16:39.267Z,6.37
2017-10-21T10:19:07.535Z,8.00
2017-10-21T10:21:35.049Z,6.70
2017-10-21T10:24:02.552Z,7.70
2017-10-21T10:26:30.830Z,6.27
2017-10-21T10:28:59.135Z,6.77
2017-10-21T10:31:27.772Z,6.90
2017-10-21T10:33:56.035Z,6.87
2017-10-21T10:36:23.528Z,6.90
2017-10-21T10:38:51.043Z,6.90
2017-10-21T10:41:18.547Z,7.33
2017-10-21T10:43:46.057Z,7.20
2017-10-21T10:46:13.561Z,7.87
2017-10-21T10:48:42.559Z,6.33
2017-10-21T10:51:10.059Z,7.17
2017-10-21T10:53:38.359Z,6.90
2017-10-21T10:56:05.855Z,7.30
2017-10-21T10:58:33.748Z,6.17
2017-10-21T11:01:01.295Z,6.60
2017-10-21T11:03:29.199Z,7.30
2017-10-21T11:05:57.467Z,6.33
2017-10-21T11:08:25.360Z,6.50
2017-10-21T11:10:52.875Z,6.77
2017-10-21T11:13:21.147Z,5.93
2017-10-21T11:15:49.563Z,7.30
2017-10-21T11:18:18.562Z,7.03
2017-10-21T11:20:46.081Z,5.90
2017-10-21T11:23:14.351Z,6.33
2017-10-21T11:25:42.612Z,6.17
2017-10-21T11:28:10.508Z,6.63
2017-10-21T11:30:38.047Z,6.10
2017-10-21T11:33:07.099Z,6.37
2017-10-21T11:35:34.625Z,6.20
2017-10-21T11:38:03.279Z,7.43
2017-10-21T11:40:30.792Z,6.70
2017-10-21T11:42:58.703Z,5.77
2017-10-21T11:45:26.215Z,6.73
2017-10-21T11:47:55.079Z,6.43
2017-10-21T11:50:22.977Z,9.50
2017-10-21T11:52:50.476Z,6.03
2017-10-21T11:55:17.975Z,7.10
2017-10-21T11:57:45.876Z,6.30
2017-10-21T12:00:14.898Z,5.70
2017-10-21T12:02:42.415Z,7.30
2017-10-21T12:05:10.688Z,5.90
2017-10-21T12:07:38.950Z,6.90
2017-10-21T12:10:06.503Z,5.90
2017-10-21T12:12:34.003Z,6.40
2017-10-21T12:15:02.867Z,6.40
2017-10-21T12:17:30.379Z,6.27
2017-10-21T12:19:57.901Z,6.13
2017-10-21T12:22:25.398Z,6.50
2017-10-21T12:24:52.926Z,6.30
2017-10-21T12:27:21.205Z,6.63
2017-10-21T12:29:49.099Z,6.20
2017-10-21T12:32:16.594Z,5.50
2017-10-21T12:34:44.861Z,6.27
2017-10-21T12:37:12.375Z,5.97
2017-10-21T12:39:39.882Z,5.93
2017-10-21T12:42:07.781Z,6.23
2017-10-21T12:44:35.280Z,5.70
2017-10-21T12:47:03.967Z,6.43
2017-10-21T12:49:32.234Z,6.20
2017-10-21T12:52:00.506Z,7.00
2017-10-21T12:54:28.858Z,5.83
2017-10-21T12:56:56.367Z,6.27
2017-10-21T12:59:24.631Z,5.53
2017-10-21T13:01:52.523Z,4.80
2017-10-21T13:04:20.028Z,4.80
2017-10-21T13:06:49.057Z,5.97
2017-10-21T13:09:16.556Z,4.77
2017-10-21T13:11:44.051Z,4.80
2017-10-21T13:14:11.555Z,4.80
2017-10-21T13:16:40.442Z,4.80
2017-10-21T13:19:07.983Z,4.63
2017-10-21T13:21:35.479Z,4.40
2017-10-21T13:24:03.747Z,4.57
2017-10-21T13:26:32.019Z,4.00
2017-10-21T13:29:00.308Z,3.60
2017-10-21T13:31:27.886Z,4.23
2017-10-21T13:33:55.383Z,3.60
2017-10-21T13:36:23.650Z,3.80
2017-10-21T13:38:51.143Z,3.80
2017-10-21T13:41:19.419Z,3.83
2017-10-21T13:43:47.326Z,3.40
2017-10-21T13:46:14.815Z,3.33
2017-10-21T13:48:42.311Z,3.80
2017-10-21T13:51:09.819Z,3.13
2017-10-21T13:53:37.749Z,3.80
2017-10-21T13:56:05.299Z,3.37
2017-10-21T13:58:33.570Z,3.03
2017-10-21T14:01:01.871Z,3.60
2017-10-21T14:03:30.529Z,3.00
2017-10-21T14:05:58.028Z,2.90
2017-10-21T14:08:25.541Z,3.20
2017-10-21T14:10:53.046Z,3.77
2017-10-21T14:13:20.552Z,3.73
2017-10-21T14:15:49.190Z,2.80
2017-10-21T14:18:17.839Z,2.50
2017-10-21T14:20:45.333Z,3.80
2017-10-21T14:23:12.838Z,3.67
2017-10-21T14:25:40.723Z,4.20
2017-10-21T14:28:08.254Z,3.43
2017-10-21T14:30:35.743Z,3.70
2017-10-21T14:33:03.235Z,3.37
2017-10-21T14:35:30.736Z,3.63
2017-10-21T14:37:58.627Z,3.63
2017-10-21T14:40:26.523Z,3.13
2017-10-21T14:42:54.028Z,3.97
2017-10-21T14:45:21.531Z,4.33
2017-10-21T14:47:49.419Z,3.60
2017-10-21T14:50:16.911Z,3.60
2017-10-21T14:52:44.432Z,3.33
2017-10-21T14:55:11.956Z,3.70
2017-10-21T14:57:39.465Z,3.83
2017-10-21T15:00:06.981Z,4.00
2017-10-21T15:02:34.480Z,3.63
2017-10-21T15:05:02.431Z,3.80
2017-10-21T15:07:29.931Z,3.57
2017-10-21T15:09:58.203Z,3.97
2017-10-21T15:12:26.462Z,3.40
2017-10-21T15:14:53.955Z,4.70
2017-10-21T15:17:21.491Z,3.30
2017-10-21T15:19:49.785Z,3.60
2017-10-21T15:22:17.303Z,3.90
2017-10-21T15:24:45.941Z,3.20
2017-10-21T15:27:13.875Z,3.73
2017-10-21T15:29:41.399Z,3.97
2017-10-21T15:32:08.918Z,4.17
2017-10-21T15:34:36.807Z,4.27
2017-10-21T15:37:05.103Z,3.53
2017-10-21T15:39:34.108Z,3.90
2017-10-21T15:42:01.607Z,5.00
2017-10-21T15:44:30.244Z,4.67
2017-10-21T15:46:57.747Z,4.33
2017-10-21T15:49:25.240Z,4.40
2017-10-21T15:51:52.744Z,3.63
2017-10-21T15:54:21.752Z,4.30
2017-10-21T15:56:49.280Z,3.93
2017-10-21T15:59:16.796Z,4.50
2017-10-21T16:01:44.303Z,5.10
2017-10-21T16:04:11.829Z,4.20
2017-10-21T16:06:39.339Z,4.53
2017-10-21T16:09:08.071Z,4.30
2017-10-21T16:11:35.587Z,4.97
2017-10-21T16:14:03.090Z,4.57
2017-10-21T16:16:30.598Z,4.10
2017-10-21T16:18:58.115Z,4.67
2017-10-21T16:21:25.751Z,4.60
2017-10-21T16:23:53.641Z,5.57
2017-10-21T16:26:21.139Z,4.70
2017-10-21T16:28:49.407Z,4.40
2017-10-21T16:31:17.315Z,4.80
2017-10-21T16:33:45.583Z,4.47
2017-10-21T16:36:13.841Z,4.43
2017-10-21T16:38:41.351Z,3.97
2017-10-21T16:41:08.851Z,4.50
2017-10-21T16:43:37.123Z,4.43
2017-10-21T16:46:05.426Z,4.80
2017-10-21T16:48:34.069Z,3.80
2017-10-21T16:51:01.575Z,4.23
2017-10-21T16:53:29.078Z,3.60
2017-10-21T16:55:57.364Z,3.70
2017-10-21T16:58:25.628Z,3.97
2017-10-21T17:00:53.151Z,4.30
2017-10-21T17:03:20.763Z,4.20
2017-10-21T17:05:49.662Z,6.60
2017-10-21T17:08:18.295Z,5.27
2017-10-21T17:10:46.568Z,5.40
2017-10-21T17:13:14.070Z,4.77
2017-10-21T17:15:41.584Z,5.70
2017-10-21T17:18:09.076Z,4.63
2017-10-21T17:20:36.571Z,4.23
2017-10-21T17:23:04.844Z,4.80
2017-10-21T17:25:32.343Z,4.87
2017-10-21T17:27:59.868Z,4.83
2017-10-21T17:30:27.383Z,5.37
2017-10-21T17:32:54.908Z,4.23
2017-10-21T17:35:22.806Z,6.30
2017-10-21T17:37:50.311Z,5.60
2017-10-21T17:40:17.804Z,4.93
2017-10-21T17:42:45.396Z,4.80
2017-10-21T17:45:14.026Z,6.07
2017-10-21T17:47:41.583Z,6.40
2017-10-21T17:50:10.588Z,5.93
2017-10-21T17:52:38.083Z,6.67
2017-10-21T17:55:05.575Z,5.73
2017-10-21T17:57:33.655Z,5.63
2017-10-21T18:00:01.567Z,5.07
2017-10-21T18:02:29.061Z,5.37
2017-10-21T18:04:58.087Z,5.17
2017-10-21T18:07:25.616Z,4.87
2017-10-21T18:09:53.275Z,5.00
2017-10-21T18:12:22.127Z,5.20
2017-10-21T18:14:50.602Z,5.70
2017-10-21T18:17:18.883Z,5.33
2017-10-21T18:19:46.395Z,5.27
2017-10-21T18:22:13.903Z,6.33
2017-10-21T18:24:41.404Z,6.23
2017-10-21T18:27:08.900Z,5.40
2017-10-21T18:29:37.847Z,5.77
2017-10-21T18:32:05.403Z,5.40
2017-10-21T18:34:32.899Z,5.33
2017-10-21T18:37:00.495Z,6.20
2017-10-21T18:39:28.120Z,5.47
2017-10-21T18:41:55.821Z,5.73
2017-10-21T18:44:23.311Z,5.77
2017-10-21T18:46:50.803Z,4.90
2017-10-21T18:49:19.211Z,5.40
2017-10-21T18:51:46.707Z,5.80
2017-10-21T18:54:14.602Z,5.17
2017-10-21T18:56:42.967Z,6.33
2017-10-21T18:59:10.655Z,6.20
2017-10-21T19:01:38.240Z,5.17
2017-10-21T19:04:05.782Z,6.67
2017-10-21T19:06:33.299Z,7.00
2017-10-21T19:09:02.168Z,5.77
2017-10-21T19:11:30.173Z,5.80
2017-10-21T19:13:57.832Z,6.73
2017-10-21T19:16:25.335Z,5.30
2017-10-21T19:18:52.944Z,6.30
2017-10-21T19:21:21.858Z,5.20
2017-10-21T19:23:49.916Z,5.87
2017-10-21T19:26:17.560Z,5.40
2017-10-21T19:28:45.828Z,6.10
2017-10-21T19:31:13.332Z,6.10
2017-10-21T19:33:42.351Z,7.53
2017-10-21T19:36:09.860Z,5.70
2017-10-21T19:38:38.499Z,6.10
2017-10-21T19:41:06.023Z,7.30
2017-10-21T19:43:33.644Z,6.53
2017-10-21T19:46:01.558Z,6.80
2017-10-21T19:48:30.640Z,6.50
2017-10-21T19:50:58.968Z,6.47
2017-10-21T19:53:26.464Z,7.40
2017-10-21T19:55:55.100Z,7.37
2017-10-21T19:58:22.598Z,8.10
2017-10-21T20:00:50.495Z,6.60
2017-10-21T20:03:19.175Z,6.40
2017-10-21T20:05:47.074Z,7.20
2017-10-21T20:08:14.567Z,6.80
2017-10-21T20:10:42.064Z,5.30
2017-10-21T20:13:09.988Z,6.57
2017-10-21T20:15:37.495Z,6.80
2017-10-21T20:18:05.024Z,6.50
2017-10-21T20:20:33.291Z,5.80
2017-10-21T20:23:01.608Z,6.70
2017-10-21T20:25:29.103Z,6.57
2017-10-21T20:27:56.659Z,6.10
2017-10-21T20:30:24.159Z,7.43
2017-10-21T20:32:52.799Z,5.90
2017-10-21T20:35:20.322Z,6.50
2017-10-21T20:37:47.831Z,7.03
2017-10-21T20:40:15.332Z,7.00
2017-10-21T20:42:42.840Z,6.67
2017-10-21T20:45:11.868Z,7.17
2017-10-21T20:47:39.383Z,7.10
2017-10-21T20:50:07.673Z,6.50
2017-10-21T20:52:35.187Z,7.10
2017-10-21T20:55:02.716Z,7.43
2017-10-21T20:57:30.215Z,7.20
2017-10-21T20:59:58.152Z,6.90
2017-10-21T21:02:25.647Z,7.00
2017-10-21T21:04:53.175Z,6.90
2017-10-21T21:07:20.683Z,6.53
2017-10-21T21:09:48.179Z,6.87
2017-10-21T21:12:17.183Z,7.60
2017-10-21T21:14:45.080Z,6.63
2017-10-21T21:17:12.571Z,6.50
2017-10-21T21:19:40.067Z,6.53
2017-10-21T21:22:07.566Z,6.93
2017-10-21T21:24:36.202Z,7.23
2017-10-21T21:27:04.102Z,7.67
2017-10-21T21:29:31.602Z,7.63
2017-10-21T21:31:59.124Z,7.37
2017-10-21T21:34:26.619Z,8.00
2017-10-21T21:36:54.143Z,7.90
2017-10-21T21:39:22.420Z,7.07
2017-10-21T21:41:50.351Z,8.50
2017-10-21T21:44:17.847Z,9.47
2017-10-21T21:46:45.339Z,9.37
2017-10-21T21:49:13.231Z,9.90
2017-10-21T21:51:41.123Z,9.40
2017-10-21T21:54:08.626Z,9.73
2017-10-21T21:56:36.904Z,9.63
2017-10-21T21:59:05.755Z,8.80
2017-10-21T22:01:33.251Z,4.27
2017-10-21T22:04:02.132Z,3.80
2017-10-21T22:06:30.392Z,2.50
2017-10-21T22:08:58.675Z,1.43
2017-10-21T22:11:26.568Z,1.23
2017-10-21T22:13:55.243Z,1.23
2017-10-21T22:16:22.735Z,1.13
2017-10-21T22:18:51.003Z,1.27
2017-10-21T22:21:19.268Z,1.60
2017-10-21T22:23:47.539Z,1.20
2017-10-21T22:26:15.034Z,1.97
2017-10-21T22:28:43.684Z,1.50
2017-10-21T22:31:11.183Z,1.63
2017-10-21T22:33:40.179Z,1.47
2017-10-21T22:36:08.459Z,1.47
2017-10-21T22:38:36.348Z,1.60
2017-10-21T22:41:03.868Z,1.30
2017-10-21T22:43:31.768Z,0.83
2017-10-21T22:45:59.263Z,1.20
2017-10-21T22:48:27.532Z,1.30
2017-10-21T22:50:55.032Z,1.00
2017-10-21T22:53:22.527Z,1.10
2017-10-21T22:55:50.029Z,1.17
2017-10-21T22:58:17.534Z,1.23
2017-10-21T23:00:45.799Z,0.93
2017-10-21T23:03:13.313Z,0.83
2017-10-21T23:05:42.312Z,0.77
2017-10-21T23:08:09.835Z,1.13
2017-10-21T23:10:37.348Z,1.00
2017-10-21T23:13:04.876Z,0.97
2017-10-21T23:15:32.366Z,1.00
2017-10-21T23:17:59.887Z,1.00
2017-10-21T23:20:28.151Z,0.80
2017-10-21T23:22:56.460Z,1.27
2017-10-21T23:25:23.955Z,1.67
2017-10-21T23:27:51.447Z,0.93
2017-10-21T23:30:20.295Z,1.00
2017-10-21T23:32:47.791Z,0.97
2017-10-21T23:35:15.286Z,1.40
2017-10-21T23:37:43.916Z,1.47
2017-10-21T23:40:12.172Z,1.17
2017-10-21T23:42:41.187Z,1.00
2017-10-21T23:45:09.455Z,1.00
2017-10-21T23:47:37.345Z,0.90
2017-10-21T23:50:04.835Z,1.23
2017-10-21T23:52:33.110Z,1.10
2017-10-21T23:55:00.626Z,1.20
2017-10-21T23:57:28.119Z,1.00
2017-10-21T23:59:55.655Z,1.30
